createdAt,value
2022-12-14T02:36:12.684Z,8.03
2022-12-14T02:38:56.448Z,6.37
2022-12-14T02:41:38.709Z,6.93
2022-12-14T02:44:20.614Z,6.20
2022-12-14T02:47:03.221Z,6.33
2022-12-14T02:49:53.328Z,6.53
2022-12-14T02:52:38.233Z,7.27
2022-12-14T02:55:13.337Z,8.27
2022-12-14T02:57:49.571Z,6.90
2022-12-14T03:00:19.532Z,7.53
2022-12-14T03:02:51.391Z,7.23
2022-12-14T03:05:20.622Z,7.27
2022-12-14T03:07:55.863Z,7.07
2022-12-14T03:10:38.385Z,6.40
2022-12-14T03:13:18.113Z,6.30
2022-12-14T03:15:57.757Z,6.03
2022-12-14T03:18:35.513Z,6.27
2022-12-14T03:21:08.571Z,6.50
2022-12-14T03:23:43.517Z,6.47
2022-12-14T03:26:19.390Z,6.57
2022-12-14T03:28:53.331Z,7.03
2022-12-14T03:31:29.578Z,6.37
2022-12-14T03:34:03.996Z,6.43
2022-12-14T03:36:41.941Z,6.40
2022-12-14T03:39:22.676Z,6.40
2022-12-14T03:42:02.784Z,6.50
2022-12-14T03:44:49.512Z,7.33
2022-12-14T03:47:46.782Z,7.17
2022-12-14T03:50:22.302Z,6.70
2022-12-14T03:53:02.515Z,6.33
2022-12-14T03:55:45.064Z,6.57
2022-12-14T03:58:38.087Z,6.77
2022-12-14T04:01:17.056Z,6.97
2022-12-14T04:04:00.999Z,6.57
2022-12-14T04:06:41.342Z,6.93
2022-12-14T04:09:26.022Z,6.97
2022-12-14T04:12:25.119Z,6.43
2022-12-14T04:15:18.231Z,7.03
2022-12-14T04:18:06.932Z,6.73
2022-12-14T04:20:45.344Z,6.50
2022-12-14T04:23:43.561Z,7.63
2022-12-14T04:26:19.240Z,6.83
2022-12-14T04:29:13.630Z,6.43
2022-12-14T04:31:50.722Z,7.20
2022-12-14T04:34:24.760Z,6.60
2022-12-14T04:36:57.139Z,6.13
2022-12-14T04:39:38.630Z,7.17
2022-12-14T04:42:11.700Z,6.83
2022-12-14T04:44:48.724Z,6.77
2022-12-14T04:47:20.384Z,6.50
2022-12-14T04:49:56.010Z,6.90
2022-12-14T04:52:32.781Z,6.90
2022-12-14T04:55:10.243Z,7.10
2022-12-14T04:57:45.882Z,7.20
2022-12-14T05:00:17.865Z,7.13
2022-12-14T05:03:10.933Z,7.37
2022-12-14T05:05:51.061Z,7.60
2022-12-14T05:08:37.984Z,8.30
2022-12-14T05:11:50.151Z,8.13
2022-12-14T05:14:14.694Z,7.87
2022-12-14T05:16:48.973Z,7.37
2022-12-14T05:19:17.783Z,7.97
2022-12-14T05:21:49.427Z,8.93
2022-12-14T05:24:19.371Z,10.17
2022-12-14T05:26:49.233Z,8.67
2022-12-14T05:29:17.877Z,11.20
2022-12-14T05:31:49.122Z,12.27
2022-12-14T05:34:18.698Z,11.73
2022-12-14T05:36:48.462Z,10.40
2022-12-14T05:39:18.763Z,9.17
2022-12-14T05:41:47.392Z,9.03
2022-12-14T05:44:15.749Z,9.30
2022-12-14T05:46:43.837Z,10.20
2022-12-14T05:49:14.048Z,10.23
2022-12-14T05:51:43.301Z,8.60
2022-12-14T05:54:11.853Z,9.70
2022-12-14T05:56:40.178Z,9.93
2022-12-14T05:59:09.150Z,9.57
2022-12-14T06:01:38.017Z,9.13
2022-12-14T06:04:07.346Z,9.03
2022-12-14T06:06:37.052Z,8.73
2022-12-14T06:09:08.694Z,8.90
2022-12-14T06:11:41.049Z,9.17
2022-12-14T06:14:12.025Z,9.37
2022-12-14T06:16:45.034Z,8.93
2022-12-14T06:19:15.901Z,8.70
2022-12-14T06:21:46.188Z,8.77
2022-12-14T06:24:15.413Z,8.90
2022-12-14T06:26:44.164Z,10.20
2022-12-14T06:29:18.324Z,9.23
2022-12-14T06:31:49.571Z,9.77
2022-12-14T06:34:23.574Z,9.80
2022-12-14T06:36:58.848Z,9.73
2022-12-14T06:39:27.149Z,9.77
2022-12-14T06:41:56.065Z,10.10
2022-12-14T06:44:24.369Z,10.23
2022-12-14T06:46:52.792Z,10.33
2022-12-14T06:49:22.066Z,9.80
2022-12-14T06:51:51.126Z,10.53
2022-12-14T06:54:21.460Z,10.30
2022-12-14T06:56:49.877Z,10.03
2022-12-14T06:59:18.709Z,10.73
2022-12-14T07:01:50.002Z,10.43
2022-12-14T07:04:21.359Z,10.70
2022-12-14T07:06:50.223Z,10.07
2022-12-14T07:09:19.917Z,10.57
2022-12-14T07:11:52.104Z,10.63
2022-12-14T07:14:20.660Z,9.93
2022-12-14T07:16:49.591Z,10.07
2022-12-14T07:19:18.810Z,10.47
2022-12-14T07:21:47.962Z,10.43
2022-12-14T07:24:16.718Z,10.93
2022-12-14T07:26:46.776Z,10.77
2022-12-14T07:29:16.860Z,11.30
2022-12-14T07:31:49.486Z,10.93
2022-12-14T07:34:18.422Z,11.17
2022-12-14T07:36:47.225Z,11.23
2022-12-14T07:39:16.087Z,11.50
2022-12-14T07:41:47.248Z,11.70
2022-12-14T07:44:22.309Z,12.53
2022-12-14T07:46:50.724Z,12.00
2022-12-14T07:49:19.232Z,11.33
2022-12-14T07:51:47.774Z,11.67
2022-12-14T07:54:16.693Z,11.93
2022-12-14T07:56:46.809Z,11.87
2022-12-14T07:59:17.354Z,10.93
2022-12-14T08:01:46.419Z,11.03
2022-12-14T08:04:18.951Z,10.90
2022-12-14T08:06:49.470Z,10.60
2022-12-14T08:09:20.498Z,11.67
2022-12-14T08:11:50.430Z,12.33
2022-12-14T08:14:21.288Z,11.30
2022-12-14T08:16:51.144Z,11.73
2022-12-14T08:19:21.310Z,11.97
2022-12-14T08:21:49.528Z,12.23
2022-12-14T08:24:18.315Z,10.93
2022-12-14T08:26:47.264Z,11.07
2022-12-14T08:29:20.011Z,10.93
2022-12-14T08:31:48.317Z,24.03
2022-12-14T08:34:22.762Z,10.73
2022-12-14T08:36:51.608Z,12.40
2022-12-14T08:39:19.852Z,12.10
2022-12-14T08:41:48.102Z,12.30
2022-12-14T08:44:18.967Z,12.00
2022-12-14T08:46:47.904Z,12.50
2022-12-14T08:49:16.562Z,10.93
2022-12-14T08:51:46.151Z,10.93
2022-12-14T08:54:14.462Z,10.93
2022-12-14T08:56:43.536Z,10.97
2022-12-14T08:59:24.683Z,10.43
2022-12-14T09:02:01.740Z,11.63
2022-12-14T09:04:30.328Z,10.27
2022-12-14T09:06:58.767Z,10.72
2022-12-14T09:09:27.549Z,11.00
2022-12-14T09:11:56.307Z,11.23
2022-12-14T09:14:24.587Z,12.00
2022-12-14T09:16:53.240Z,10.97
2022-12-14T09:19:22.875Z,10.60
2022-12-14T09:21:51.249Z,11.50
2022-12-14T09:24:20.138Z,10.80
2022-12-14T09:26:48.804Z,10.73
2022-12-14T09:29:19.762Z,10.97
2022-12-14T09:31:48.409Z,11.10
2022-12-14T09:34:16.935Z,10.63
2022-12-14T09:36:46.953Z,10.57
2022-12-14T09:39:15.495Z,11.70
2022-12-14T09:42:09.397Z,10.07
2022-12-14T09:44:57.416Z,11.53
2022-12-14T09:47:37.598Z,11.77
2022-12-14T09:50:13.366Z,12.00
2022-12-14T09:52:48.270Z,10.87
2022-12-14T09:55:26.231Z,10.50
2022-12-14T09:58:01.321Z,10.20
2022-12-14T10:00:36.770Z,11.20
2022-12-14T10:03:38.179Z,11.33
2022-12-14T10:06:34.143Z,11.23
2022-12-14T10:09:16.099Z,11.13
2022-12-14T10:12:01.369Z,12.03
2022-12-14T10:14:56.308Z,12.10
2022-12-14T10:17:36.929Z,12.47
2022-12-14T10:20:21.803Z,13.40
2022-12-14T10:22:53.640Z,11.40
2022-12-14T10:25:27.700Z,12.70
2022-12-14T10:28:12.057Z,12.73
2022-12-14T10:30:44.197Z,10.43
2022-12-14T10:33:24.545Z,8.97
2022-12-14T10:35:56.476Z,10.13
2022-12-14T10:38:32.543Z,10.47
2022-12-14T10:41:16.158Z,10.93
2022-12-14T10:43:57.298Z,10.80
2022-12-14T10:46:41.781Z,10.53
2022-12-14T10:49:20.323Z,17.40
2022-12-14T10:51:53.607Z,12.37
2022-12-14T10:54:31.359Z,11.50
2022-12-14T10:57:02.381Z,12.53
2022-12-14T10:59:41.323Z,13.23
2022-12-14T11:02:20.296Z,12.83
2022-12-14T11:04:56.045Z,12.17
2022-12-14T11:07:27.618Z,12.30
2022-12-14T11:10:16.554Z,12.07
2022-12-14T11:13:03.408Z,12.00
2022-12-14T11:15:36.868Z,11.83
2022-12-14T11:18:26.307Z,11.43
2022-12-14T11:20:57.353Z,12.03
2022-12-14T11:23:32.054Z,15.20
2022-12-14T11:26:04.380Z,12.60
2022-12-14T11:28:40.775Z,13.50
2022-12-14T11:31:14.985Z,13.07
2022-12-14T11:33:50.821Z,15.13
2022-12-14T11:36:28.346Z,13.80
2022-12-14T11:38:59.791Z,12.83
2022-12-14T11:41:34.534Z,13.83
2022-12-14T14:38:22.635Z,12.87
2022-12-14T14:45:41.841Z,13.67
2022-12-14T14:48:23.584Z,16.53
2022-12-14T14:51:06.616Z,11.93
2022-12-14T14:53:36.745Z,14.47
2022-12-14T14:56:34.829Z,21.80
2022-12-14T14:59:50.515Z,17.80
2022-12-14T15:02:34.844Z,12.57
2022-12-14T15:05:40.286Z,12.37
2022-12-14T15:07:55.995Z,11.57
2022-12-14T15:10:35.740Z,11.90
2022-12-14T15:13:17.450Z,10.60
2022-12-14T15:15:49.694Z,11.20
2022-12-14T15:18:24.127Z,11.67
2022-12-14T15:21:02.025Z,11.80
2022-12-14T15:23:37.567Z,11.93
2022-12-14T15:26:17.859Z,11.30
2022-12-14T15:28:51.299Z,10.93
2022-12-14T15:31:29.026Z,10.80
2022-12-14T15:34:01.188Z,11.10
2022-12-14T15:36:35.652Z,11.13
2022-12-14T15:39:04.668Z,9.63
2022-12-14T15:41:34.928Z,10.30
2022-12-14T15:44:03.353Z,10.03
2022-12-14T15:46:40.583Z,13.77
2022-12-14T15:49:23.952Z,13.80
2022-12-14T15:51:54.492Z,10.07
2022-12-14T15:54:26.439Z,12.93
2022-12-14T15:56:59.572Z,11.80
2022-12-14T15:59:32.628Z,9.70
2022-12-14T16:02:17.364Z,10.50
2022-12-14T16:04:48.101Z,11.33
2022-12-14T16:07:24.413Z,10.63
2022-12-14T16:09:59.179Z,9.50
2022-12-14T16:12:44.429Z,12.10
2022-12-14T16:15:21.267Z,12.90
2022-12-14T16:17:57.324Z,10.90
2022-12-14T16:20:33.248Z,11.90
2022-12-14T16:23:06.762Z,10.80
2022-12-14T16:25:37.990Z,12.63
2022-12-14T16:28:29.040Z,11.13
2022-12-14T16:31:06.584Z,10.90
2022-12-14T16:33:37.870Z,10.97
2022-12-14T16:36:14.225Z,11.07
2022-12-14T16:38:57.585Z,11.30
2022-12-14T16:41:37.468Z,12.70
2022-12-14T16:44:10.043Z,11.23
2022-12-14T16:46:38.862Z,11.27
2022-12-14T16:49:23.689Z,14.70
2022-12-14T16:52:09.229Z,9.67
2022-12-14T16:54:39.280Z,10.53
2022-12-14T16:57:21.442Z,11.30
2022-12-14T16:59:59.867Z,11.97
2022-12-14T17:02:33.662Z,12.60
2022-12-14T17:05:06.028Z,12.83
2022-12-14T17:07:38.729Z,11.20
2022-12-14T17:10:16.159Z,11.43
2022-12-14T17:12:45.180Z,9.90
2022-12-14T17:15:16.042Z,13.17
2022-12-14T17:17:49.475Z,11.03
2022-12-14T17:20:22.408Z,10.10
2022-12-14T17:22:52.814Z,17.43
2022-12-14T17:25:22.077Z,11.27
2022-12-14T17:27:50.274Z,10.00
2022-12-14T17:30:22.848Z,13.73
2022-12-14T17:32:53.691Z,10.60
2022-12-14T17:35:26.928Z,10.30
2022-12-14T17:37:57.022Z,11.20
2022-12-14T17:40:25.676Z,10.43
2022-12-14T17:42:56.222Z,10.63
2022-12-14T17:45:28.243Z,13.70
2022-12-14T17:47:57.635Z,12.80
2022-12-14T17:50:26.403Z,12.53
2022-12-14T17:52:56.356Z,13.93
2022-12-14T17:55:28.085Z,12.77
2022-12-14T17:57:58.048Z,12.70
2022-12-14T18:00:47.453Z,12.13
2022-12-14T18:03:18.581Z,12.77
2022-12-14T18:05:51.233Z,12.60
2022-12-14T18:08:23.367Z,12.60
2022-12-14T18:10:58.839Z,11.63
2022-12-14T18:13:31.137Z,12.23
2022-12-14T18:16:00.447Z,14.00
2022-12-14T18:18:29.477Z,15.83
2022-12-14T18:21:01.617Z,13.23
2022-12-14T18:23:33.284Z,14.57
2022-12-14T18:26:05.168Z,13.77
2022-12-14T18:28:33.647Z,24.10
2022-12-14T18:31:07.488Z,21.43
2022-12-14T18:33:35.951Z,17.13
2022-12-14T18:36:04.917Z,18.23
2022-12-14T18:38:34.364Z,17.27
2022-12-14T18:41:03.639Z,20.13
2022-12-14T18:43:36.755Z,19.73
2022-12-14T18:46:08.765Z,17.90
2022-12-14T18:48:37.387Z,18.70
2022-12-14T18:51:06.252Z,17.70
2022-12-14T18:53:35.955Z,15.40
2022-12-14T18:56:08.637Z,16.00
2022-12-14T18:58:37.512Z,16.30
2022-12-14T19:01:06.103Z,17.63
2022-12-14T19:03:36.020Z,15.40
2022-12-14T19:06:43.162Z,14.63
2022-12-14T19:08:58.197Z,16.57
2022-12-14T19:11:34.343Z,15.43
2022-12-14T19:14:03.293Z,14.97
2022-12-14T19:16:32.008Z,16.73
2022-12-14T19:19:00.921Z,14.87
2022-12-14T19:21:30.166Z,13.70
2022-12-14T19:24:01.222Z,13.03
2022-12-14T19:26:30.214Z,13.33
2022-12-14T19:28:59.885Z,12.80
2022-12-14T19:31:28.150Z,12.50
2022-12-14T19:33:57.538Z,12.97
2022-12-14T19:36:26.520Z,12.70
2022-12-14T19:38:54.702Z,13.13
2022-12-14T19:41:24.520Z,13.33
2022-12-14T19:43:52.741Z,12.77
2022-12-14T19:46:20.971Z,12.23
2022-12-14T19:48:49.327Z,13.00
2022-12-14T19:51:20.401Z,12.70
2022-12-14T19:53:48.993Z,12.40
2022-12-14T19:56:19.704Z,12.87
2022-12-14T19:58:49.538Z,12.47
2022-12-14T20:01:18.908Z,12.83
2022-12-14T20:03:49.191Z,12.80
2022-12-14T20:06:17.677Z,12.60
2022-12-14T20:08:49.598Z,12.17
2022-12-14T20:11:18.173Z,12.70
2022-12-14T20:13:49.368Z,12.23
2022-12-14T20:16:22.527Z,12.10
2022-12-14T20:18:50.969Z,12.73
2022-12-14T20:21:23.076Z,11.83
2022-12-14T20:23:51.687Z,11.60
2022-12-14T20:26:23.298Z,13.40
2022-12-14T20:28:53.604Z,12.20
2022-12-14T20:31:24.411Z,13.03
2022-12-14T20:33:54.352Z,14.10
2022-12-14T20:36:23.321Z,13.87
2022-12-14T20:38:57.858Z,14.87
2022-12-14T20:41:27.114Z,14.80
2022-12-14T20:43:56.350Z,13.00
2022-12-14T20:46:31.848Z,12.17
2022-12-14T20:49:02.449Z,12.53
2022-12-14T20:51:33.936Z,12.60
2022-12-14T20:54:03.725Z,12.97
2022-12-14T20:56:32.127Z,12.93
2022-12-14T20:59:01.210Z,12.03
2022-12-14T21:01:31.116Z,13.83
2022-12-14T21:04:02.584Z,13.83
2022-12-14T21:06:32.985Z,12.43
2022-12-14T21:09:16.228Z,12.83
2022-12-14T21:12:05.029Z,13.47
2022-12-14T21:14:35.941Z,14.03
2022-12-14T21:17:06.533Z,13.90
2022-12-14T21:19:35.907Z,13.13
2022-12-14T21:22:04.880Z,12.80
2022-12-14T21:27:24.806Z,14.10
2022-12-14T21:29:53.682Z,14.53
2022-12-14T21:32:24.092Z,15.17
2022-12-14T21:34:52.300Z,15.07
2022-12-14T21:37:22.206Z,13.43
2022-12-14T21:39:54.090Z,13.10
2022-12-14T21:42:22.441Z,13.30
2022-12-14T21:44:53.614Z,13.10
2022-12-14T21:47:26.928Z,12.70
2022-12-14T21:49:58.219Z,12.40
2022-12-14T21:52:28.761Z,12.57
2022-12-14T21:54:58.877Z,13.00
2022-12-14T21:57:49.902Z,12.17
2022-12-14T22:00:20.336Z,13.60
2022-12-14T22:02:50.143Z,12.97
2022-12-14T22:05:19.546Z,14.27
2022-12-14T22:07:48.373Z,15.17
2022-12-14T22:10:22.862Z,14.97
2022-12-14T22:12:53.367Z,13.73
2022-12-14T22:15:21.891Z,14.03
2022-12-14T22:17:52.563Z,14.30
2022-12-14T22:20:20.923Z,13.73
2022-12-14T22:22:49.478Z,14.33
2022-12-14T22:25:17.899Z,12.03
2022-12-14T22:27:50.170Z,11.73
2022-12-14T22:30:19.169Z,11.87
2022-12-14T22:32:47.967Z,12.80
2022-12-14T22:35:18.213Z,12.00
2022-12-14T22:37:46.404Z,11.93
2022-12-14T22:40:14.719Z,11.97
2022-12-14T22:42:42.986Z,11.43
2022-12-14T22:45:12.863Z,12.13
2022-12-14T22:47:41.143Z,12.10
2022-12-14T22:50:10.523Z,19.07
2022-12-14T22:52:40.542Z,14.80
2022-12-14T22:55:10.394Z,14.50
2022-12-14T22:57:42.461Z,35.90
2022-12-14T23:00:16.565Z,16.60
2022-12-14T23:02:48.281Z,13.80
2022-12-14T23:05:18.494Z,12.37
2022-12-14T23:07:48.564Z,12.80
2022-12-14T23:10:35.101Z,13.80
2022-12-14T23:13:21.154Z,11.63
2022-12-14T23:16:07.023Z,12.47
2022-12-14T23:18:53.085Z,13.50
2022-12-14T23:21:39.415Z,14.10
2022-12-14T23:24:27.664Z,13.00
2022-12-14T23:27:14.548Z,17.97
2022-12-14T23:30:00.545Z,14.93
2022-12-14T23:32:46.220Z,14.77
2022-12-14T23:35:32.367Z,14.43
2022-12-14T23:38:23.981Z,13.20
2022-12-14T23:41:12.180Z,15.10
2022-12-14T23:43:58.219Z,15.43
2022-12-14T23:46:44.808Z,18.87
2022-12-14T23:49:30.923Z,17.47
2022-12-14T23:52:16.901Z,13.23
2022-12-14T23:55:02.990Z,13.63
2022-12-14T23:57:50.406Z,12.83
